This is the latest recevied weather packets stored in our database for station/object VK1KCM-5. If no packets are shown the sender has not sent any weather packets the latest 10 day(s).
| Time | Temp. | Humidity | Pressure | Rain* | Wind** | Luminosity | Snow |
|---|---|---|---|---|---|---|---|
| 1787895895 | 15.56° C | 65% | 1023.8 hPa | 0 mm | - | - | - |
| 1787895609 | 15° C | 68% | 1023.6 hPa | 0 mm | - | - | - |
| 1787895358 | 15° C | 68% | 1023.6 hPa | 0 mm | - | - | - |
| 1787895079 | 15.56° C | 64% | 1023.2 hPa | 0 mm | - | - | - |
| 1787894813 | 15.56° C | 66% | 1023.4 hPa | 0 mm | - | - | - |
| 1787894521 | 15° C | 67% | 1023.7 hPa | 0 mm | - | - | - |
| 1787894279 | 14.44° C | 69% | 1023.9 hPa | 0 mm | - | - | - |
| 1787893979 | 15° C | 67% | 1023.4 hPa | 0 mm | - | - | - |
| 1787893689 | 16.11° C | 63% | 1023.4 hPa | 0 mm | - | - | - |
| 1787893414 | 15.56° C | 66% | 1023.6 hPa | 0 mm | - | - | - |
| 1787893138 | 15° C | 65% | 1023.7 hPa | 0 mm | - | - | - |
| 1787892890 | 15.56° C | 64% | 1023.4 hPa | 0 mm | - | - | - |
| 1787892598 | 15.56° C | 65% | 1023.5 hPa | 0 mm | - | - | - |
| 1787892329 | 15° C | 66% | 1023.5 hPa | 0 mm | - | - | - |
| 1787892053 | 15° C | 66% | 1023.5 hPa | 0 mm | - | - | - |
| 1787891759 | 15° C | 65% | 1023.8 hPa | 0 mm | - | - | - |
| 1787891509 | 15° C | 66% | 1023.8 hPa | 0 mm | - | - | - |
| 1787891229 | 15.56° C | 65% | 1023.5 hPa | 0 mm | - | - | - |
| 1787890927 | 16.11° C | 63% | 1023.6 hPa | 0 mm | - | - | - |
| 1787890679 | 16.67° C | 60% | 1023.2 hPa | 0 mm | - | - | - |
| 1787890423 | 15.56° C | 65% | 1023.4 hPa | 0 mm | - | - | - |
| 1787890134 | 15.56° C | 63% | 1023.4 hPa | 0 mm | - | - | - |
| 1787889844 | 15.56° C | 63% | 1023.5 hPa | 0 mm | - | - | - |
| 1787889563 | 15.56° C | 64% | 1023.4 hPa | 0 mm | - | - | - |
| 1787889319 | 16.11° C | 63% | 1023.3 hPa | 0 mm | - | - | - |
* Rain latest hour (hover to see other rain measurements)
** Current wind speed in m/s (hover to see current wind gust speed)